createdAt,value
2023-05-08T00:01:09.863Z,9.96
2023-05-08T00:03:37.311Z,9.93
2023-05-08T00:06:05.902Z,9.98
2023-05-08T00:08:33.350Z,9.88
2023-05-08T00:11:00.696Z,9.81
2023-05-08T00:13:27.798Z,9.75
2023-05-08T00:15:54.928Z,9.77
2023-05-08T00:18:22.046Z,9.69
2023-05-08T00:20:49.080Z,9.64
2023-05-08T00:23:16.093Z,9.58
2023-05-08T00:25:43.233Z,9.63
2023-05-08T00:28:10.376Z,9.60
2023-05-08T00:30:37.578Z,9.66
2023-05-08T00:33:05.127Z,9.64
2023-05-08T00:35:32.154Z,9.61
2023-05-08T00:37:59.596Z,9.64
2023-05-08T00:40:26.949Z,9.64
2023-05-08T00:42:54.460Z,9.61
2023-05-08T00:45:21.517Z,9.65
2023-05-08T00:47:50.380Z,9.61
2023-05-08T00:50:18.491Z,9.55
2023-05-08T00:52:46.416Z,9.58
2023-05-08T00:55:13.772Z,9.59
2023-05-08T00:57:41.061Z,9.63
2023-05-08T01:00:09.592Z,9.61
2023-05-08T01:02:37.057Z,9.57
2023-05-08T01:05:04.812Z,9.63
2023-05-08T01:07:32.838Z,9.57
2023-05-08T01:09:59.939Z,9.48
2023-05-08T01:13:08.545Z,9.45
2023-05-08T01:15:43.736Z,9.38
2023-05-08T01:18:42.747Z,9.36
2023-05-08T01:21:32.685Z,9.30
2023-05-08T01:24:08.647Z,9.27
2023-05-08T01:26:54.146Z,9.18
2023-05-08T01:30:06.165Z,9.25
2023-05-08T01:32:39.195Z,9.17
2023-05-08T01:35:17.623Z,9.16
2023-05-08T01:38:07.878Z,9.12
2023-05-08T01:40:48.961Z,9.04
2023-05-08T01:43:43.805Z,8.97
2023-05-08T01:46:19.509Z,8.98
2023-05-08T01:49:09.733Z,8.99
2023-05-08T01:51:48.703Z,8.96
2023-05-08T01:54:19.928Z,8.93
2023-05-08T01:56:48.950Z,8.90
2023-05-08T01:59:21.006Z,8.93
2023-05-08T02:01:49.676Z,8.87
2023-05-08T02:04:18.201Z,8.76
2023-05-08T02:06:46.212Z,8.75
2023-05-08T02:09:13.804Z,8.75
2023-05-08T02:11:43.506Z,8.74
2023-05-08T02:14:13.458Z,8.73
2023-05-08T02:16:42.548Z,8.67
2023-05-08T02:19:11.709Z,8.60
2023-05-08T02:21:39.921Z,8.63
2023-05-08T02:24:08.378Z,8.54
2023-05-08T02:26:36.962Z,8.50
2023-05-08T02:29:04.220Z,8.54
2023-05-08T02:31:32.093Z,8.52
2023-05-08T02:34:00.633Z,8.44
2023-05-08T02:36:30.928Z,8.40
2023-05-08T02:38:59.177Z,8.39
2023-05-08T02:41:30.619Z,8.32
2023-05-08T02:43:58.217Z,8.27
2023-05-08T02:46:54.483Z,8.26
2023-05-08T02:49:45.930Z,8.16
2023-05-08T02:52:37.007Z,8.12
2023-05-08T02:55:27.531Z,7.93
2023-05-08T02:58:01.752Z,8.04
2023-05-08T03:00:32.982Z,8.00
2023-05-08T03:03:07.780Z,7.96
2023-05-08T03:05:38.842Z,7.96
2023-05-08T03:08:15.859Z,7.95
2023-05-08T03:10:46.786Z,7.93
2023-05-08T03:13:16.621Z,7.80
2023-05-08T03:15:50.474Z,7.82
2023-05-08T03:18:21.186Z,7.77
2023-05-08T03:20:52.793Z,7.72
2023-05-08T03:23:22.013Z,7.67
2023-05-08T03:25:49.280Z,7.71
2023-05-08T03:28:17.935Z,7.68
2023-05-08T03:30:46.083Z,7.61
2023-05-08T03:33:13.492Z,7.45
2023-05-08T03:35:41.613Z,7.68
2023-05-08T03:38:08.892Z,7.63
2023-05-08T03:40:38.653Z,7.65
2023-05-08T03:43:07.818Z,7.66
2023-05-08T03:45:37.966Z,7.65
2023-05-08T03:48:07.348Z,7.70
2023-05-08T03:50:36.333Z,7.74
2023-05-08T03:53:04.551Z,7.75
2023-05-08T03:55:32.881Z,7.80
2023-05-08T03:58:08.099Z,7.82
2023-05-08T04:01:01.808Z,7.80
2023-05-08T04:03:44.540Z,7.85
2023-05-08T04:06:23.232Z,7.83
2023-05-08T04:09:02.331Z,7.87
2023-05-08T04:11:44.526Z,7.87
2023-05-08T04:14:32.960Z,7.88
2023-05-08T04:17:06.940Z,7.89
2023-05-08T04:19:38.963Z,7.81
2023-05-08T04:22:08.106Z,7.82
2023-05-08T04:24:43.301Z,7.83
2023-05-08T04:27:11.470Z,7.83
2023-05-08T04:29:39.334Z,7.92
2023-05-08T04:32:07.093Z,7.94
2023-05-08T04:34:34.525Z,8.05
2023-05-08T04:37:03.727Z,8.03
2023-05-08T04:39:30.878Z,8.04
2023-05-08T04:42:03.004Z,8.03
2023-05-08T04:44:30.631Z,8.07
2023-05-08T04:46:57.732Z,8.09
2023-05-08T04:49:25.071Z,8.05
2023-05-08T04:51:52.114Z,8.12
2023-05-08T04:54:19.165Z,8.23
2023-05-08T04:56:46.244Z,8.14
2023-05-08T04:59:14.771Z,8.15
2023-05-08T05:01:43.353Z,8.24
2023-05-08T05:04:10.505Z,8.31
2023-05-08T05:06:37.681Z,8.36
2023-05-08T05:09:05.412Z,8.49
2023-05-08T05:11:32.428Z,8.49
2023-05-08T05:13:59.900Z,8.59
2023-05-08T05:16:27.554Z,8.65
2023-05-08T05:18:54.763Z,8.68
2023-05-08T05:21:21.988Z,8.63
2023-05-08T05:23:49.054Z,8.65
2023-05-08T05:26:16.181Z,8.80
2023-05-08T05:28:43.280Z,8.80
2023-05-08T05:31:10.905Z,8.80
2023-05-08T05:33:38.358Z,8.84
2023-05-08T05:36:05.705Z,8.90
2023-05-08T05:38:32.887Z,8.93
2023-05-08T05:41:00.250Z,8.98
2023-05-08T05:43:27.898Z,9.01
2023-05-08T05:45:58.363Z,9.04
2023-05-08T05:48:25.432Z,9.13
2023-05-08T05:50:52.489Z,9.27
2023-05-08T05:53:19.688Z,9.31
2023-05-08T05:55:46.909Z,9.38
2023-05-08T05:58:14.041Z,9.42
2023-05-08T06:00:41.338Z,9.43
2023-05-08T06:03:08.485Z,9.57
2023-05-08T06:05:35.712Z,9.71
2023-05-08T06:08:02.858Z,9.67
2023-05-08T06:10:30.055Z,9.70
2023-05-08T06:12:57.256Z,9.81
2023-05-08T06:15:24.708Z,9.81
2023-05-08T06:17:52.969Z,9.79
2023-05-08T06:20:20.154Z,9.91
2023-05-08T06:22:47.225Z,9.97
2023-05-08T06:25:14.552Z,10.08
2023-05-08T06:27:42.118Z,10.12
2023-05-08T06:30:10.867Z,10.19
2023-05-08T06:32:38.437Z,10.19
2023-05-08T06:35:06.012Z,10.24
2023-05-08T06:37:33.353Z,10.21
2023-05-08T06:40:11.477Z,10.33
2023-05-08T06:42:39.354Z,10.35
2023-05-08T06:45:07.579Z,10.55
2023-05-08T06:47:34.789Z,10.59
2023-05-08T06:50:02.030Z,10.63
2023-05-08T06:52:29.518Z,10.73
2023-05-08T06:54:56.546Z,10.87
2023-05-08T06:57:26.281Z,10.91
2023-05-08T06:59:54.251Z,11.02
2023-05-08T07:02:21.706Z,11.02
2023-05-08T07:04:48.886Z,11.07
2023-05-08T07:07:16.193Z,11.22
2023-05-08T07:09:43.555Z,11.25
2023-05-08T07:12:10.627Z,11.27
2023-05-08T07:14:37.689Z,11.44
2023-05-08T07:17:08.133Z,11.38
2023-05-08T07:19:38.750Z,11.53
2023-05-08T07:22:06.102Z,11.59
2023-05-08T07:24:33.416Z,11.73
2023-05-08T07:27:01.604Z,11.82
2023-05-08T07:29:28.780Z,11.87
2023-05-08T07:31:56.279Z,11.87
2023-05-08T07:34:23.465Z,11.90
2023-05-08T07:36:50.707Z,11.95
2023-05-08T07:39:17.787Z,12.11
2023-05-08T07:41:47.123Z,12.12
2023-05-08T07:44:16.601Z,12.13
2023-05-08T07:46:44.153Z,12.16
2023-05-08T07:49:11.742Z,12.26
2023-05-08T07:51:39.389Z,12.27
2023-05-08T07:54:09.613Z,12.31
2023-05-08T07:56:36.643Z,12.40
2023-05-08T07:59:03.772Z,12.54
2023-05-08T08:01:31.584Z,12.67
2023-05-08T08:03:58.823Z,12.80
2023-05-08T08:06:26.017Z,12.92
2023-05-08T08:08:53.092Z,13.02
2023-05-08T08:11:20.184Z,13.06
2023-05-08T08:13:47.238Z,12.99
2023-05-08T08:16:14.411Z,13.12
2023-05-08T08:18:41.639Z,13.15
2023-05-08T08:21:08.794Z,13.29
2023-05-08T08:23:36.138Z,13.50
2023-05-08T08:26:03.298Z,13.49
2023-05-08T08:28:30.643Z,13.51
2023-05-08T08:30:58.260Z,13.62
2023-05-08T08:33:28.538Z,13.71
2023-05-08T08:35:55.737Z,13.77
2023-05-08T08:38:22.804Z,13.84
2023-05-08T08:40:49.902Z,13.84
2023-05-08T08:43:17.126Z,13.85
2023-05-08T08:45:44.280Z,14.01
2023-05-08T08:48:12.559Z,14.09
2023-05-08T08:50:46.701Z,13.93
2023-05-08T08:53:25.830Z,14.13
2023-05-08T08:55:58.009Z,14.26
2023-05-08T08:58:39.218Z,14.32
2023-05-08T09:01:07.861Z,14.43
2023-05-08T09:03:35.690Z,14.47
2023-05-08T09:06:03.048Z,14.64
2023-05-08T09:08:30.191Z,14.76
2023-05-08T09:10:57.425Z,14.98
2023-05-08T09:13:24.663Z,15.14
2023-05-08T09:15:51.916Z,15.32
2023-05-08T09:18:19.410Z,15.24
2023-05-08T09:20:47.153Z,15.37
2023-05-08T09:23:17.683Z,15.42
2023-05-08T09:25:47.373Z,15.31
2023-05-08T09:28:25.468Z,15.49
2023-05-08T09:30:59.211Z,15.62
2023-05-08T09:33:28.453Z,15.81
2023-05-08T09:35:56.424Z,16.01
2023-05-08T09:38:37.971Z,15.99
2023-05-08T09:41:16.461Z,15.95
2023-05-08T09:43:44.789Z,16.06
2023-05-08T09:46:24.951Z,16.07
2023-05-08T09:48:57.561Z,16.03
2023-05-08T09:51:26.534Z,16.00
2023-05-08T09:53:59.063Z,15.98
2023-05-08T09:56:34.477Z,16.02
2023-05-08T09:59:24.260Z,15.86
2023-05-08T10:01:51.597Z,16.05
2023-05-08T10:04:19.060Z,16.23
2023-05-08T10:06:57.358Z,16.56
2023-05-08T10:09:25.262Z,16.59
2023-05-08T10:11:54.895Z,16.79
2023-05-08T10:14:23.528Z,16.92
2023-05-08T10:16:53.068Z,17.13
2023-05-08T10:19:22.576Z,17.43
2023-05-08T10:21:54.245Z,17.89
2023-05-08T10:24:28.028Z,18.01
2023-05-08T10:27:07.355Z,18.37
2023-05-08T10:29:47.450Z,18.79
2023-05-08T10:32:19.103Z,19.21
2023-05-08T10:34:49.809Z,19.46
2023-05-08T10:37:17.472Z,19.44
2023-05-08T10:39:45.038Z,19.89
2023-05-08T10:42:15.605Z,20.35
2023-05-08T10:44:43.031Z,20.61
2023-05-08T10:47:25.307Z,20.90
2023-05-08T10:50:12.796Z,20.74
2023-05-08T10:52:49.732Z,20.94
2023-05-08T10:55:25.023Z,21.11
2023-05-08T10:58:11.671Z,21.26
2023-05-08T11:00:56.863Z,21.54
2023-05-08T11:03:32.079Z,21.55
2023-05-08T11:06:01.997Z,21.61
2023-05-08T11:08:30.807Z,21.38
2023-05-08T11:11:06.356Z,22.44
2023-05-08T11:13:48.744Z,22.85
2023-05-08T11:16:16.592Z,22.83
2023-05-08T11:19:32.306Z,22.72
2023-05-08T11:22:12.131Z,22.78
2023-05-08T11:24:41.700Z,22.48
2023-05-08T11:27:08.753Z,23.03
2023-05-08T11:29:36.241Z,23.07
2023-05-08T11:32:03.558Z,23.74
2023-05-08T11:34:43.402Z,24.12
2023-05-08T11:37:21.674Z,23.65
2023-05-08T11:39:49.032Z,23.62
2023-05-08T11:42:25.025Z,23.13
2023-05-08T11:45:07.720Z,22.71
2023-05-08T11:47:41.175Z,22.55
2023-05-08T11:50:09.691Z,22.37
2023-05-08T11:52:38.231Z,22.72
2023-05-08T11:55:07.492Z,22.50
2023-05-08T11:57:34.904Z,22.35
2023-05-08T12:00:10.317Z,21.88
2023-05-08T12:02:42.211Z,21.88
2023-05-08T12:05:10.880Z,22.14
2023-05-08T12:07:48.124Z,22.03
2023-05-08T12:10:16.858Z,21.75
2023-05-08T12:12:45.264Z,21.64
2023-05-08T12:15:15.361Z,21.41
2023-05-08T12:17:42.865Z,21.18
2023-05-08T12:20:15.917Z,20.89
2023-05-08T12:22:50.601Z,20.84
2023-05-08T12:25:18.168Z,20.81
2023-05-08T12:27:46.995Z,20.88
2023-05-08T12:30:17.889Z,21.04
2023-05-08T12:32:46.268Z,21.00
2023-05-08T12:35:14.538Z,20.84
2023-05-08T12:37:41.867Z,20.80
2023-05-08T12:40:26.168Z,21.01
2023-05-08T12:42:53.399Z,21.14
2023-05-08T12:45:22.048Z,21.13
2023-05-08T12:47:50.034Z,21.33
2023-05-08T12:50:18.843Z,21.35
2023-05-08T12:52:45.991Z,21.34
2023-05-08T12:55:27.607Z,21.34
2023-05-08T12:58:15.514Z,21.91
2023-05-08T13:00:43.866Z,22.30
2023-05-08T13:03:13.073Z,22.53
2023-05-08T13:05:48.164Z,22.64
2023-05-08T13:08:15.308Z,23.56
2023-05-08T13:10:53.305Z,23.83
2023-05-08T13:13:23.197Z,23.92
2023-05-08T13:15:51.773Z,24.10
2023-05-08T13:18:20.234Z,24.56
2023-05-08T13:20:47.302Z,24.74
2023-05-08T13:23:14.485Z,25.12
2023-05-08T13:25:41.654Z,25.44
2023-05-08T13:28:09.637Z,26.19
2023-05-08T13:30:37.712Z,25.98
2023-05-08T13:33:05.572Z,27.15
2023-05-08T13:35:33.780Z,27.44
2023-05-08T13:38:01.417Z,27.62
2023-05-08T13:40:41.935Z,28.36
2023-05-08T13:43:09.275Z,29.14
2023-05-08T13:45:36.743Z,28.60
2023-05-08T13:48:04.438Z,28.60
2023-05-08T13:50:31.835Z,-138.62
2023-05-08T13:53:00.660Z,-138.62
2023-05-08T13:55:28.535Z,-138.62
2023-05-08T13:57:58.341Z,-138.62
2023-05-08T14:00:28.284Z,28.94
2023-05-08T14:02:55.929Z,29.50
2023-05-08T14:05:23.324Z,-138.62
2023-05-08T14:07:50.782Z,-138.62
2023-05-08T14:10:18.238Z,-138.62
2023-05-08T14:12:46.888Z,-138.62
2023-05-08T14:15:14.612Z,-138.62
2023-05-08T14:17:42.600Z,-138.62
2023-05-08T14:20:12.048Z,-138.62
2023-05-08T14:22:39.937Z,-138.62
2023-05-08T14:25:08.098Z,-138.62
2023-05-08T14:27:35.469Z,-138.62
2023-05-08T14:30:03.372Z,-138.62
2023-05-08T14:32:31.205Z,-138.62
2023-05-08T14:34:58.651Z,-138.62
2023-05-08T14:37:26.754Z,-138.62
2023-05-08T14:39:56.262Z,-138.62
2023-05-08T14:42:23.919Z,-138.62
2023-05-08T14:44:52.882Z,-138.62
2023-05-08T14:47:20.621Z,-138.62
2023-05-08T14:49:48.237Z,-138.62
2023-05-08T14:52:15.961Z,-138.62
2023-05-08T14:54:43.729Z,-138.62
2023-05-08T14:57:11.322Z,-138.62
2023-05-08T14:59:43.551Z,-138.62
2023-05-08T15:02:18.170Z,-138.62
2023-05-08T15:04:46.728Z,-138.62
2023-05-08T15:07:14.052Z,-138.62
2023-05-08T15:09:42.181Z,-138.62
2023-05-08T15:12:09.720Z,-138.62
2023-05-08T15:14:37.023Z,-138.62
2023-05-08T15:17:04.398Z,-138.62
2023-05-08T15:19:31.950Z,-138.62
2023-05-08T15:21:59.319Z,-138.62
2023-05-08T15:24:26.615Z,-138.62
2023-05-08T15:26:54.271Z,-138.62
2023-05-08T15:29:21.765Z,-138.62
2023-05-08T15:31:49.253Z,-138.62
2023-05-08T15:34:16.734Z,-138.62
2023-05-08T15:36:43.931Z,-138.62
2023-05-08T15:39:11.498Z,-138.62
2023-05-08T15:41:40.150Z,-138.62
2023-05-08T15:44:10.742Z,-138.62
2023-05-08T15:46:38.469Z,-138.62
2023-05-08T15:49:05.830Z,-138.62
2023-05-08T15:51:33.156Z,-138.62
2023-05-08T15:54:00.735Z,-138.62
2023-05-08T15:56:28.355Z,-138.62
2023-05-08T15:58:57.664Z,-138.62
2023-05-08T16:01:26.571Z,-138.62
2023-05-08T16:03:54.047Z,-138.62
2023-05-08T16:06:21.405Z,-138.62
2023-05-08T16:08:48.969Z,-138.62
2023-05-08T16:11:16.402Z,-138.62
2023-05-08T16:13:43.972Z,-138.62
2023-05-08T16:16:11.464Z,-138.62
2023-05-08T16:18:38.976Z,-138.62
2023-05-08T16:21:10.645Z,-138.62
2023-05-08T16:23:38.102Z,-138.62
2023-05-08T16:26:06.086Z,-138.62
2023-05-08T16:28:33.834Z,-138.62
2023-05-08T16:31:02.424Z,-138.62
2023-05-08T16:33:29.843Z,-138.62
2023-05-08T16:35:57.253Z,-138.62
2023-05-08T16:38:24.958Z,-138.62
2023-05-08T16:40:52.307Z,-138.62
2023-05-08T16:43:19.903Z,-138.62
2023-05-08T16:45:51.306Z,-138.62
2023-05-08T16:48:18.666Z,-138.62
2023-05-08T16:50:46.070Z,-138.62
2023-05-08T16:53:13.748Z,-138.62
2023-05-08T16:55:41.385Z,-138.62
2023-05-08T16:58:08.786Z,29.50
2023-05-08T17:00:36.247Z,24.16
2023-05-08T17:03:03.890Z,24.48
2023-05-08T17:05:31.314Z,24.48
2023-05-08T17:07:59.000Z,24.52
2023-05-08T17:10:26.357Z,24.54
2023-05-08T17:12:54.350Z,24.41
2023-05-08T17:15:21.990Z,24.63
2023-05-08T17:17:50.609Z,24.80
2023-05-08T17:20:18.186Z,25.13
2023-05-08T17:22:45.789Z,25.08
2023-05-08T17:25:13.499Z,24.92
2023-05-08T17:27:41.410Z,24.28
2023-05-08T17:30:13.336Z,24.33
2023-05-08T17:32:41.439Z,24.00
2023-05-08T17:35:09.751Z,23.57
2023-05-08T17:37:37.394Z,23.52
2023-05-08T17:40:05.177Z,23.23
2023-05-08T17:42:32.557Z,22.91
2023-05-08T17:45:00.228Z,22.93
2023-05-08T17:47:27.732Z,22.21
2023-05-08T17:49:55.268Z,21.97
2023-05-08T17:52:22.641Z,21.80
2023-05-08T17:54:54.042Z,21.38
2023-05-08T17:57:21.519Z,21.08
2023-05-08T17:59:48.933Z,20.83
2023-05-08T18:02:16.297Z,20.56
2023-05-08T18:04:43.920Z,20.31
2023-05-08T18:07:11.991Z,19.78
2023-05-08T18:09:39.252Z,19.68
2023-05-08T18:12:07.075Z,19.51
2023-05-08T18:14:34.852Z,19.34
2023-05-08T18:17:02.736Z,19.07
2023-05-08T18:19:30.106Z,18.89
2023-05-08T18:21:58.452Z,18.80
2023-05-08T18:24:25.879Z,18.49
2023-05-08T18:26:53.192Z,18.34
2023-05-08T18:29:21.075Z,18.22
2023-05-08T18:31:48.707Z,18.20
2023-05-08T18:34:16.713Z,18.08
2023-05-08T18:36:44.590Z,18.00
2023-05-08T18:39:11.835Z,17.88
2023-05-08T18:41:39.541Z,17.80
2023-05-08T18:44:07.010Z,17.65
2023-05-08T18:46:35.054Z,17.44
2023-05-08T18:49:02.448Z,17.37
2023-05-08T18:51:29.733Z,17.32
2023-05-08T18:53:57.375Z,17.23
2023-05-08T18:56:24.918Z,17.21
2023-05-08T18:58:52.298Z,17.18
2023-05-08T19:01:21.495Z,17.06
2023-05-08T19:03:48.901Z,16.86
2023-05-08T19:06:17.094Z,16.83
2023-05-08T19:08:44.707Z,16.71
2023-05-08T19:11:12.075Z,16.69
2023-05-08T19:13:39.620Z,16.69
2023-05-08T19:16:07.216Z,16.58
2023-05-08T19:18:35.006Z,16.50
2023-05-08T19:21:02.435Z,16.49
2023-05-08T19:23:30.096Z,16.42
2023-05-08T19:25:57.310Z,16.37
2023-05-08T19:28:24.666Z,16.35
2023-05-08T19:30:52.154Z,16.34
2023-05-08T19:33:21.078Z,16.33
2023-05-08T19:35:49.068Z,16.27
2023-05-08T19:38:16.274Z,16.19
2023-05-08T19:40:55.678Z,16.11
2023-05-08T19:43:25.842Z,15.93
2023-05-08T19:45:53.527Z,15.90
2023-05-08T19:48:21.076Z,15.79
2023-05-08T19:50:48.640Z,15.72
2023-05-08T19:53:16.018Z,15.71
2023-05-08T19:55:44.647Z,15.67
2023-05-08T19:58:12.670Z,15.54
2023-05-08T20:00:39.978Z,15.52
2023-05-08T20:03:07.874Z,15.48
2023-05-08T20:05:36.312Z,15.34
2023-05-08T20:08:03.729Z,15.39
2023-05-08T20:10:30.969Z,15.45
2023-05-08T20:12:58.644Z,15.40
2023-05-08T20:15:25.971Z,15.35
2023-05-08T20:17:54.983Z,15.28
2023-05-08T20:20:22.473Z,15.29
2023-05-08T20:22:49.752Z,15.23
2023-05-08T20:25:17.617Z,15.16
2023-05-08T20:27:44.758Z,15.09
2023-05-08T20:30:12.485Z,15.14
2023-05-08T20:32:40.105Z,15.00
2023-05-08T20:35:07.868Z,14.94
2023-05-08T20:37:35.298Z,14.95
2023-05-08T20:40:04.834Z,14.80
2023-05-08T20:42:32.473Z,14.80
2023-05-08T20:44:59.760Z,14.71
2023-05-08T20:47:27.514Z,14.66
2023-05-08T20:49:54.638Z,14.65
2023-05-08T20:52:21.939Z,14.64
2023-05-08T20:54:50.442Z,14.59
2023-05-08T20:57:18.614Z,14.57
2023-05-08T20:59:47.602Z,14.50
2023-05-08T21:02:15.212Z,14.50
2023-05-08T21:04:42.576Z,14.44
2023-05-08T21:07:10.453Z,14.43
2023-05-08T21:09:38.687Z,14.48
2023-05-08T21:12:06.604Z,14.43
2023-05-08T21:14:35.530Z,14.40
2023-05-08T21:17:05.652Z,14.27
2023-05-08T21:19:34.227Z,14.27
2023-05-08T21:22:02.982Z,14.20
2023-05-08T21:24:31.170Z,14.08
2023-05-08T21:27:00.708Z,14.09
2023-05-08T21:29:28.266Z,14.12
2023-05-08T21:31:55.745Z,14.01
2023-05-08T21:34:24.276Z,13.89
2023-05-08T21:36:51.977Z,13.85
2023-05-08T21:39:19.419Z,13.90
2023-05-08T21:41:46.766Z,13.86
2023-05-08T21:44:15.609Z,13.91
2023-05-08T21:46:42.801Z,13.82
2023-05-08T21:49:10.951Z,13.73
2023-05-08T21:51:38.126Z,13.79
2023-05-08T21:54:05.347Z,13.50
2023-05-08T21:56:32.804Z,13.60
2023-05-08T21:58:59.940Z,13.42
2023-05-08T22:01:27.057Z,13.51
2023-05-08T22:03:54.302Z,13.47
2023-05-08T22:06:21.547Z,13.43
2023-05-08T22:08:48.623Z,13.31
2023-05-08T22:11:15.906Z,13.14
2023-05-08T22:13:42.976Z,13.19
2023-05-08T22:16:10.134Z,13.12
2023-05-08T22:18:37.550Z,13.00
2023-05-08T22:21:04.723Z,13.03
2023-05-08T22:23:34.408Z,12.92
2023-05-08T22:26:01.629Z,12.87
2023-05-08T22:28:28.894Z,12.79
2023-05-08T22:30:55.976Z,12.80
2023-05-08T22:33:24.429Z,12.63
2023-05-08T22:35:51.827Z,12.60
2023-05-08T22:38:19.251Z,12.56
2023-05-08T22:40:47.769Z,12.54
2023-05-08T22:43:14.950Z,12.53
2023-05-08T22:45:42.184Z,12.47
2023-05-08T22:48:10.442Z,12.40
2023-05-08T22:50:37.821Z,12.26
2023-05-08T22:53:08.374Z,12.18
2023-05-08T22:55:35.786Z,12.19
2023-05-08T22:58:03.779Z,12.27
2023-05-08T23:00:30.837Z,12.23
2023-05-08T23:02:57.976Z,12.12
2023-05-08T23:05:25.248Z,12.11
2023-05-08T23:07:52.336Z,12.04
2023-05-08T23:10:19.417Z,11.94
2023-05-08T23:12:46.995Z,11.95
2023-05-08T23:15:14.482Z,11.96
2023-05-08T23:17:41.781Z,12.02
2023-05-08T23:20:09.432Z,11.88
2023-05-08T23:22:36.561Z,11.82
2023-05-08T23:25:04.185Z,11.79
2023-05-08T23:27:31.247Z,11.84
2023-05-08T23:29:58.857Z,11.89
2023-05-08T23:32:26.034Z,11.86
2023-05-08T23:34:53.226Z,11.88
2023-05-08T23:37:20.343Z,11.87
2023-05-08T23:39:47.333Z,11.87
2023-05-08T23:42:14.432Z,11.71
2023-05-08T23:44:41.478Z,11.77
2023-05-08T23:47:08.877Z,11.73
2023-05-08T23:49:36.037Z,11.73
2023-05-08T23:52:03.451Z,11.68
2023-05-08T23:54:30.668Z,11.73
2023-05-08T23:56:57.836Z,11.54
2023-05-08T23:59:25.188Z,11.45
